createdAt,value
2022-08-16T00:01:41.095Z,4.30
2022-08-16T00:04:10.293Z,4.20
2022-08-16T00:06:39.484Z,5.27
2022-08-16T00:09:10.877Z,5.43
2022-08-16T00:11:39.552Z,4.90
2022-08-16T00:14:09.472Z,6.13
2022-08-16T00:17:01.607Z,5.20
2022-08-16T00:19:28.368Z,4.77
2022-08-16T00:22:13.768Z,7.10
2022-08-16T00:24:46.961Z,5.97
2022-08-16T00:27:18.784Z,5.17
2022-08-16T00:29:48.082Z,9.27
2022-08-16T00:32:33.008Z,9.20
2022-08-16T00:35:02.309Z,7.87
2022-08-16T00:37:58.849Z,5.93
2022-08-16T00:40:33.750Z,8.57
2022-08-16T00:43:06.006Z,5.63
2022-08-16T00:45:58.285Z,5.90
2022-08-16T00:48:30.869Z,4.83
2022-08-16T00:51:00.405Z,4.87
2022-08-16T00:53:30.950Z,5.20
2022-08-16T00:56:05.550Z,6.07
2022-08-16T00:58:35.341Z,5.17
2022-08-16T01:01:08.207Z,5.20
2022-08-16T01:03:41.606Z,6.30
2022-08-16T01:06:39.679Z,9.90
2022-08-16T01:09:00.702Z,6.57
2022-08-16T01:11:30.915Z,5.30
2022-08-16T01:14:07.571Z,6.23
2022-08-16T01:16:36.638Z,5.80
2022-08-16T01:19:07.499Z,6.30
2022-08-16T01:21:41.478Z,6.33
2022-08-16T01:24:44.598Z,6.00
2022-08-16T01:27:09.519Z,5.73
2022-08-16T01:29:57.988Z,5.87
2022-08-16T01:32:33.786Z,5.67
2022-08-16T01:35:19.182Z,5.33
2022-08-16T01:37:52.966Z,5.87
2022-08-16T01:40:25.493Z,5.50
2022-08-16T01:42:55.488Z,5.10
2022-08-16T01:45:39.725Z,5.40
2022-08-16T01:48:19.547Z,5.27
2022-08-16T01:51:09.333Z,6.17
2022-08-16T01:53:40.724Z,6.27
2022-08-16T01:56:23.362Z,5.60
2022-08-16T01:58:53.218Z,5.87
2022-08-16T02:01:21.592Z,5.93
2022-08-16T02:03:50.650Z,5.70
2022-08-16T02:06:33.640Z,5.60
2022-08-16T02:09:02.523Z,5.07
2022-08-16T02:11:47.416Z,5.10
2022-08-16T02:14:18.084Z,5.17
2022-08-16T02:16:49.783Z,5.57
2022-08-16T02:19:19.902Z,5.60
2022-08-16T02:22:09.383Z,5.13
2022-08-16T02:24:40.895Z,5.00
2022-08-16T02:27:12.923Z,4.93
2022-08-16T02:29:42.040Z,5.30
2022-08-16T02:32:50.366Z,4.90
2022-08-16T02:34:59.426Z,5.43
2022-08-16T02:37:51.322Z,5.60
2022-08-16T02:40:18.190Z,6.00
2022-08-16T02:42:50.536Z,7.63
2022-08-16T02:45:20.760Z,6.00
2022-08-16T02:48:00.468Z,5.60
2022-08-16T02:51:04.111Z,5.60
2022-08-16T02:53:30.505Z,5.03
2022-08-16T02:55:59.243Z,5.30
2022-08-16T02:58:32.615Z,5.33
2022-08-16T03:01:01.834Z,5.50
2022-08-16T03:04:41.470Z,5.60
2022-08-16T03:06:41.904Z,5.77
2022-08-16T03:09:13.522Z,5.67
2022-08-16T03:11:42.821Z,5.53
2022-08-16T03:14:13.211Z,6.60
2022-08-16T03:16:58.780Z,7.40
2022-08-16T03:19:47.366Z,7.27
2022-08-16T03:22:19.177Z,7.20
2022-08-16T03:24:57.587Z,7.53
2022-08-16T03:27:31.242Z,6.93
2022-08-16T03:30:16.014Z,7.57
2022-08-16T03:32:47.462Z,6.73
2022-08-16T03:35:17.494Z,6.90
2022-08-16T03:38:03.170Z,7.33
2022-08-16T03:40:34.390Z,6.63
2022-08-16T03:43:20.858Z,8.03
2022-08-16T03:45:52.818Z,6.77
2022-08-16T03:48:36.689Z,6.90
2022-08-16T03:51:09.258Z,6.43
2022-08-16T03:53:38.403Z,6.87
2022-08-16T03:56:18.547Z,8.00
2022-08-16T03:58:50.641Z,9.13
2022-08-16T04:01:21.044Z,9.67
2022-08-16T04:03:51.334Z,8.17
2022-08-16T04:06:21.838Z,9.57
2022-08-16T04:08:50.275Z,10.17
2022-08-16T04:11:19.349Z,9.30
2022-08-16T04:14:00.032Z,10.23
2022-08-16T04:16:38.099Z,10.60
2022-08-16T04:19:07.056Z,10.87
2022-08-16T04:21:45.821Z,11.47
2022-08-16T04:24:15.926Z,10.30
2022-08-16T04:26:46.225Z,10.63
2022-08-16T04:29:23.618Z,9.13
2022-08-16T04:31:56.129Z,9.57
2022-08-16T04:34:26.877Z,9.87
2022-08-16T04:36:56.617Z,12.10
2022-08-16T04:39:45.663Z,8.53
2022-08-16T04:42:13.954Z,9.90
2022-08-16T04:44:53.736Z,9.60
2022-08-16T04:47:25.326Z,10.53
2022-08-16T04:50:00.221Z,10.77
2022-08-16T04:52:35.138Z,9.90
2022-08-16T04:55:06.397Z,11.20
2022-08-16T04:57:36.906Z,11.67
2022-08-16T05:00:30.399Z,11.60
2022-08-16T05:02:58.864Z,11.87
2022-08-16T05:05:32.913Z,12.20
2022-08-16T05:08:29.248Z,11.90
2022-08-16T05:10:58.739Z,12.53
2022-08-16T05:13:41.073Z,12.47
2022-08-16T05:16:20.333Z,13.40
2022-08-16T05:18:52.174Z,12.83
2022-08-16T05:21:21.616Z,14.43
2022-08-16T05:23:55.797Z,14.40
2022-08-16T05:26:28.435Z,14.50
2022-08-16T05:28:57.016Z,15.60
2022-08-16T05:31:29.605Z,16.17
2022-08-16T05:34:00.694Z,16.57
2022-08-16T05:36:33.769Z,15.37
2022-08-16T05:39:04.335Z,15.97
2022-08-16T05:41:32.702Z,15.50
2022-08-16T05:44:05.158Z,16.30
2022-08-16T05:46:34.190Z,14.70
2022-08-16T05:49:09.056Z,16.00
2022-08-16T05:51:40.271Z,16.50
2022-08-16T05:54:11.385Z,15.90
2022-08-16T05:56:43.349Z,15.73
2022-08-16T05:59:13.335Z,15.67
2022-08-16T06:01:43.610Z,15.80
2022-08-16T06:04:36.714Z,16.03
2022-08-16T06:07:08.768Z,16.70
2022-08-16T06:09:43.598Z,17.00
2022-08-16T06:12:27.501Z,17.30
2022-08-16T06:14:59.383Z,18.80
2022-08-16T06:17:42.812Z,17.87
2022-08-16T06:20:18.449Z,17.00
2022-08-16T06:22:57.778Z,16.87
2022-08-16T06:25:36.490Z,16.20
2022-08-16T06:28:08.919Z,16.23
2022-08-16T06:30:44.184Z,16.50
2022-08-16T06:33:19.933Z,16.57
2022-08-16T06:35:55.259Z,16.40
2022-08-16T06:38:33.860Z,16.40
2022-08-16T06:41:04.008Z,17.00
2022-08-16T06:43:33.094Z,16.90
2022-08-16T06:46:03.710Z,16.53
2022-08-16T06:48:33.739Z,17.17
2022-08-16T06:51:03.966Z,17.67
2022-08-16T06:53:33.834Z,17.87
2022-08-16T06:56:14.747Z,18.07
2022-08-16T06:58:51.852Z,17.70
2022-08-16T07:01:25.173Z,18.10
2022-08-16T07:04:11.817Z,18.10
2022-08-16T07:06:43.173Z,18.00
2022-08-16T07:09:13.685Z,18.20
2022-08-16T07:11:47.805Z,17.17
2022-08-16T07:14:25.703Z,16.43
2022-08-16T07:16:57.774Z,16.73
2022-08-16T07:20:01.363Z,16.63
2022-08-16T07:22:38.701Z,17.23
2022-08-16T07:25:05.954Z,16.53
2022-08-16T07:27:37.434Z,16.37
2022-08-16T07:30:39.738Z,16.57
2022-08-16T07:32:55.658Z,16.23
2022-08-16T07:35:24.398Z,16.67
2022-08-16T07:37:54.499Z,15.60
2022-08-16T07:40:37.225Z,16.37
2022-08-16T07:43:11.420Z,16.07
2022-08-16T07:45:43.103Z,16.77
2022-08-16T07:48:12.435Z,16.03
2022-08-16T07:50:57.767Z,15.57
2022-08-16T07:53:29.361Z,15.37
2022-08-16T07:55:58.154Z,15.20
2022-08-16T07:58:34.686Z,15.73
2022-08-16T08:01:10.377Z,15.10
2022-08-16T08:03:43.619Z,15.07
2022-08-16T08:06:13.535Z,15.80
2022-08-16T08:08:51.617Z,15.73
2022-08-16T08:11:21.722Z,15.97
2022-08-16T08:13:51.950Z,15.70
2022-08-16T08:16:30.696Z,15.30
2022-08-16T08:19:01.105Z,15.23
2022-08-16T08:21:58.461Z,14.77
2022-08-16T08:24:20.923Z,14.77
2022-08-16T08:26:50.100Z,15.03
2022-08-16T08:29:23.227Z,14.37
2022-08-16T08:32:59.642Z,14.53
2022-08-16T08:34:54.333Z,14.10
2022-08-16T08:37:54.554Z,13.10
2022-08-16T08:40:18.864Z,14.13
2022-08-16T08:42:57.904Z,13.50
2022-08-16T08:45:53.658Z,12.70
2022-08-16T08:48:34.731Z,13.20
2022-08-16T08:51:04.338Z,12.00
2022-08-16T08:53:33.824Z,12.60
2022-08-16T08:56:22.967Z,11.63
2022-08-16T08:58:54.264Z,12.20
2022-08-16T09:01:31.611Z,12.30
2022-08-16T09:04:06.170Z,12.07
2022-08-16T09:06:34.931Z,11.32
2022-08-16T09:09:03.495Z,10.85
2022-08-16T09:11:40.835Z,10.95
2022-08-16T09:14:24.459Z,10.00
2022-08-16T09:17:02.444Z,10.07
2022-08-16T09:19:33.934Z,9.70
2022-08-16T09:22:02.653Z,9.82
2022-08-16T09:24:52.831Z,9.75
2022-08-16T09:27:21.018Z,9.80
2022-08-16T09:30:00.469Z,8.70
2022-08-16T09:32:30.247Z,9.23
2022-08-16T09:34:59.339Z,8.90
2022-08-16T09:37:29.803Z,8.75
2022-08-16T09:39:59.614Z,9.25
2022-08-16T09:42:30.020Z,8.40
2022-08-16T09:45:12.236Z,8.63
2022-08-16T09:47:56.525Z,8.75
2022-08-16T09:50:36.777Z,8.88
2022-08-16T09:53:15.224Z,8.48
2022-08-16T09:55:49.599Z,8.95
2022-08-16T09:58:39.011Z,9.27
2022-08-16T10:01:11.234Z,9.43
2022-08-16T10:04:02.313Z,8.38
2022-08-16T10:06:33.350Z,8.80
2022-08-16T10:09:04.976Z,9.25
2022-08-16T10:11:52.390Z,9.25
2022-08-16T10:14:24.556Z,8.68
2022-08-16T10:17:02.524Z,9.02
2022-08-16T10:19:32.005Z,8.48
2022-08-16T10:22:05.226Z,8.70
2022-08-16T10:24:34.194Z,9.38
2022-08-16T10:27:26.115Z,8.85
2022-08-16T10:30:00.627Z,8.80
2022-08-16T10:32:35.231Z,8.98
2022-08-16T10:35:04.347Z,9.68
2022-08-16T10:37:36.526Z,9.30
2022-08-16T10:40:28.203Z,8.52
2022-08-16T10:42:55.322Z,8.90
2022-08-16T10:45:25.821Z,9.43
2022-08-16T10:48:00.811Z,8.98
2022-08-16T10:50:32.621Z,8.57
2022-08-16T10:53:07.328Z,9.57
2022-08-16T10:55:43.679Z,9.40
2022-08-16T10:58:16.743Z,9.27
2022-08-16T11:00:47.490Z,8.20
2022-08-16T11:06:06.162Z,9.18
2022-08-16T11:08:38.075Z,8.98
2022-08-16T11:11:11.680Z,8.95
2022-08-16T11:14:10.771Z,9.25
2022-08-16T11:19:28.215Z,8.52
2022-08-16T11:22:23.240Z,8.50
2022-08-16T11:25:11.435Z,8.15
2022-08-16T11:27:36.357Z,8.48
2022-08-16T11:30:09.025Z,8.65
2022-08-16T11:32:39.295Z,8.45
2022-08-16T11:35:13.895Z,8.10
2022-08-16T11:40:36.242Z,8.98
2022-08-16T11:43:05.642Z,8.85
2022-08-16T11:45:35.125Z,8.85
2022-08-16T11:48:07.103Z,8.45
2022-08-16T11:50:35.858Z,9.38
2022-08-16T11:53:05.025Z,9.25
2022-08-16T11:55:34.038Z,8.75
2022-08-16T11:58:08.073Z,9.30
2022-08-16T12:00:51.364Z,9.32
2022-08-16T12:03:31.465Z,9.30
2022-08-16T12:06:08.186Z,9.02
2022-08-16T12:08:40.307Z,9.15
2022-08-16T12:11:09.932Z,9.60
2022-08-16T12:13:38.573Z,9.07
2022-08-16T12:16:09.101Z,8.40
2022-08-16T12:18:41.641Z,8.75
2022-08-16T12:21:10.718Z,8.90
2022-08-16T12:23:39.975Z,8.63
2022-08-16T12:26:10.223Z,8.57
2022-08-16T12:28:55.202Z,7.82
2022-08-16T12:31:25.821Z,8.30
2022-08-16T12:33:57.745Z,7.65
2022-08-16T12:36:30.008Z,7.95
2022-08-16T12:38:58.989Z,7.90
2022-08-16T12:41:27.950Z,7.82
2022-08-16T12:44:01.150Z,7.88
2022-08-16T12:46:31.166Z,7.45
2022-08-16T12:49:00.394Z,8.10
2022-08-16T12:51:57.556Z,7.70
2022-08-16T12:54:20.758Z,8.57
2022-08-16T12:56:50.520Z,8.68
2022-08-16T12:59:20.787Z,7.57
2022-08-16T13:01:50.629Z,8.55
2022-08-16T13:04:33.150Z,8.23
2022-08-16T13:09:42.338Z,8.07
2022-08-16T13:12:20.038Z,7.30
2022-08-16T13:14:50.028Z,7.82
2022-08-16T13:17:20.941Z,7.20
2022-08-16T13:20:08.288Z,7.43
2022-08-16T13:25:15.041Z,6.53
2022-08-16T13:28:01.681Z,7.10
2022-08-16T13:30:37.529Z,7.68
2022-08-16T13:33:12.473Z,6.93
2022-08-16T13:35:44.894Z,7.55
2022-08-16T13:38:21.637Z,7.20
2022-08-16T13:40:53.846Z,7.72
2022-08-16T13:43:25.224Z,7.50
2022-08-16T13:45:55.943Z,8.27
2022-08-16T13:48:25.351Z,8.02
2022-08-16T13:50:56.657Z,7.85
2022-08-16T13:53:25.876Z,8.27
2022-08-16T13:55:57.623Z,8.30
2022-08-16T13:58:34.848Z,8.95
2022-08-16T14:01:04.364Z,9.90
2022-08-16T14:03:38.589Z,8.60
2022-08-16T14:06:10.535Z,8.98
2022-08-16T14:08:42.235Z,9.10
2022-08-16T14:11:12.100Z,8.65
2022-08-16T14:13:41.195Z,8.90
2022-08-16T14:16:12.557Z,9.48
2022-08-16T14:18:53.222Z,9.18
2022-08-16T14:21:23.963Z,8.38
2022-08-16T14:23:53.062Z,8.77
2022-08-16T14:26:21.742Z,9.20
2022-08-16T14:28:53.504Z,9.02
2022-08-16T14:31:23.748Z,9.93
2022-08-16T14:33:52.169Z,10.03
2022-08-16T14:36:29.831Z,10.50
2022-08-16T14:39:00.231Z,9.40
2022-08-16T14:41:28.919Z,8.57
2022-08-16T14:43:57.299Z,5.83
2022-08-16T14:46:26.210Z,4.93
2022-08-16T14:48:54.633Z,4.40
2022-08-16T14:51:23.292Z,3.23
2022-08-16T14:53:56.954Z,3.63
2022-08-16T14:56:38.473Z,3.80
2022-08-16T14:59:11.226Z,3.43
2022-08-16T15:01:58.212Z,3.17
2022-08-16T15:04:40.472Z,3.07
2022-08-16T15:07:17.461Z,3.10
2022-08-16T15:10:01.246Z,2.83
2022-08-16T15:12:33.446Z,3.20
2022-08-16T15:15:04.421Z,3.23
2022-08-16T15:17:41.745Z,3.20
2022-08-16T15:20:12.671Z,3.30
2022-08-16T15:22:47.235Z,3.80
2022-08-16T15:25:17.830Z,3.70
2022-08-16T15:27:54.867Z,3.57
2022-08-16T15:30:57.480Z,3.73
2022-08-16T15:33:16.154Z,3.77
2022-08-16T15:35:46.468Z,3.33
2022-08-16T15:38:56.783Z,4.00
2022-08-16T15:41:04.094Z,3.50
2022-08-16T15:43:39.957Z,4.50
2022-08-16T15:46:54.914Z,5.17
2022-08-16T15:49:13.306Z,4.20
2022-08-16T15:51:43.671Z,3.70
2022-08-16T15:54:21.455Z,3.83
2022-08-16T15:57:04.280Z,4.20
2022-08-16T15:59:48.515Z,3.87
2022-08-16T16:02:27.752Z,3.93
2022-08-16T16:05:00.824Z,3.77
2022-08-16T16:07:30.574Z,3.83
2022-08-16T16:09:59.302Z,3.87
2022-08-16T16:12:53.237Z,4.63
2022-08-16T16:15:18.557Z,4.53
2022-08-16T16:17:50.719Z,4.37
2022-08-16T16:20:19.990Z,4.43
2022-08-16T16:22:49.836Z,4.70
2022-08-16T16:25:18.487Z,4.20
2022-08-16T16:27:55.938Z,4.37
2022-08-16T16:30:37.169Z,4.57
2022-08-16T16:33:12.111Z,4.40
2022-08-16T16:35:55.698Z,4.10
2022-08-16T16:38:26.437Z,4.63
2022-08-16T16:40:55.247Z,6.60
2022-08-16T16:43:26.103Z,5.73
2022-08-16T16:46:02.198Z,5.83
2022-08-16T16:48:34.826Z,5.80
2022-08-16T16:51:09.585Z,6.73
2022-08-16T16:53:41.302Z,5.83
2022-08-16T16:56:19.654Z,5.83
2022-08-16T16:59:01.167Z,6.60
2022-08-16T17:01:41.385Z,5.13
2022-08-16T17:04:31.309Z,5.03
2022-08-16T17:07:01.237Z,4.93
2022-08-16T17:09:29.836Z,4.70
2022-08-16T17:12:03.191Z,4.83
2022-08-16T17:14:34.751Z,4.90
2022-08-16T17:17:07.017Z,5.10
2022-08-16T17:19:41.354Z,4.83
2022-08-16T17:24:59.003Z,5.10
2022-08-16T17:27:34.005Z,5.90
2022-08-16T17:30:03.036Z,5.67
2022-08-16T17:32:47.808Z,5.70
2022-08-16T17:35:19.058Z,6.33
2022-08-16T17:37:54.335Z,5.77
2022-08-16T17:39:26.603Z,4.70
2022-08-16T17:40:40.693Z,6.60
2022-08-16T17:43:12.613Z,6.10
2022-08-16T17:45:41.794Z,6.47
2022-08-16T17:48:11.648Z,6.60
2022-08-16T17:50:40.354Z,6.47
2022-08-16T17:53:09.432Z,6.47
2022-08-16T17:55:40.081Z,6.83
2022-08-16T17:58:22.990Z,6.27
2022-08-16T18:00:52.711Z,6.47
2022-08-16T18:04:02.782Z,6.33
2022-08-16T18:06:13.669Z,6.43
2022-08-16T18:08:42.759Z,6.10
2022-08-16T18:11:13.358Z,6.03
2022-08-16T18:13:43.472Z,6.13
2022-08-16T18:16:14.690Z,6.80
2022-08-16T18:18:48.955Z,6.33
2022-08-16T18:21:35.241Z,6.40
2022-08-16T18:24:03.674Z,6.63
2022-08-16T18:26:32.191Z,6.00
2022-08-16T18:29:00.547Z,6.37
2022-08-16T18:31:29.189Z,6.53
2022-08-16T18:33:59.037Z,6.77
2022-08-16T18:36:27.546Z,10.70
2022-08-16T18:38:56.263Z,7.00
2022-08-16T18:41:26.349Z,6.60
2022-08-16T18:44:24.807Z,10.27
2022-08-16T18:46:44.768Z,6.40
2022-08-16T18:49:18.144Z,6.13
2022-08-16T18:51:46.857Z,6.47
2022-08-16T18:54:18.119Z,6.33
2022-08-16T18:56:56.389Z,6.10
2022-08-16T18:59:26.539Z,6.47
2022-08-16T19:02:00.493Z,5.67
2022-08-16T19:04:55.916Z,10.43
2022-08-16T19:07:29.694Z,6.20
2022-08-16T19:10:00.230Z,6.17
2022-08-16T19:12:38.700Z,8.43
2022-08-16T19:15:11.962Z,6.07
2022-08-16T19:17:42.202Z,6.30
2022-08-16T19:20:12.845Z,6.47
2022-08-16T19:25:48.312Z,6.83
2022-08-16T19:28:52.003Z,6.83
2022-08-16T19:31:08.967Z,6.53
2022-08-16T19:33:37.454Z,6.83
2022-08-16T19:36:08.139Z,7.03
2022-08-16T19:38:45.807Z,6.50
2022-08-16T19:41:16.115Z,6.67
2022-08-16T19:43:44.438Z,6.87
2022-08-16T19:46:13.039Z,6.80
2022-08-16T19:48:41.527Z,6.93
2022-08-16T19:51:11.935Z,7.40
2022-08-16T19:53:40.603Z,7.37
2022-08-16T19:56:09.525Z,7.73
2022-08-16T19:58:51.008Z,7.43
2022-08-16T20:01:27.439Z,7.07
2022-08-16T20:03:55.799Z,7.40
2022-08-16T20:06:37.896Z,7.37
2022-08-16T20:09:07.644Z,7.17
2022-08-16T20:11:35.950Z,8.20
2022-08-16T20:14:04.404Z,7.70
2022-08-16T20:16:33.198Z,7.43
2022-08-16T20:19:01.548Z,8.03
2022-08-16T20:21:31.222Z,7.83
2022-08-16T20:24:22.829Z,8.00
2022-08-16T20:26:48.405Z,8.13
2022-08-16T20:29:16.990Z,7.30
2022-08-16T20:31:45.722Z,9.00
2022-08-16T20:34:15.680Z,7.33
2022-08-16T20:36:45.850Z,7.20
2022-08-16T20:39:14.395Z,7.60
2022-08-16T20:41:43.685Z,7.13
2022-08-16T20:44:12.934Z,7.33
2022-08-16T20:46:41.601Z,7.10
2022-08-16T20:49:10.445Z,6.87
2022-08-16T20:51:49.610Z,7.30
2022-08-16T20:54:21.242Z,7.33
2022-08-16T20:56:49.762Z,7.37
2022-08-16T20:59:18.058Z,7.70
2022-08-16T21:01:50.284Z,7.53
2022-08-16T21:04:19.554Z,8.10
2022-08-16T21:06:54.014Z,8.03
2022-08-16T21:09:24.953Z,8.23
2022-08-16T21:11:54.295Z,7.67
2022-08-16T21:14:22.626Z,8.03
2022-08-16T21:16:51.193Z,8.40
2022-08-16T21:19:19.562Z,7.77
2022-08-16T21:21:47.871Z,8.80
2022-08-16T21:24:17.049Z,8.40
2022-08-16T21:26:55.487Z,8.57
2022-08-16T21:29:28.442Z,8.93
2022-08-16T21:32:09.181Z,8.57
2022-08-16T21:34:38.131Z,8.57
2022-08-16T21:37:06.962Z,8.00
2022-08-16T21:39:35.523Z,9.30
2022-08-16T21:42:08.615Z,9.73
2022-08-16T21:44:38.967Z,9.03
2022-08-16T21:47:08.282Z,10.17
2022-08-16T21:49:36.841Z,9.93
2022-08-16T21:52:07.508Z,10.27
2022-08-16T21:54:36.546Z,9.87
2022-08-16T21:57:10.636Z,10.73
2022-08-16T21:59:39.442Z,10.83
2022-08-16T22:02:08.321Z,10.30
2022-08-16T22:04:38.992Z,10.77
2022-08-16T22:07:08.130Z,10.80
2022-08-16T22:09:37.102Z,10.80
2022-08-16T22:12:07.561Z,10.67
2022-08-16T22:14:36.246Z,10.70
2022-08-16T22:17:04.742Z,10.40
2022-08-16T22:19:33.542Z,10.80
2022-08-16T22:22:02.410Z,10.90
2022-08-16T22:24:30.826Z,10.30
2022-08-16T22:26:59.264Z,10.97
2022-08-16T22:29:28.939Z,10.73
2022-08-16T22:31:57.450Z,10.97
2022-08-16T22:34:25.886Z,10.33
2022-08-16T22:36:54.191Z,10.50
2022-08-16T22:39:22.595Z,10.50
2022-08-16T22:41:51.071Z,9.70
2022-08-16T22:44:19.721Z,11.00
2022-08-16T22:46:49.646Z,11.43
2022-08-16T22:49:17.969Z,11.77
2022-08-16T22:51:46.467Z,11.77
2022-08-16T22:54:42.570Z,12.57
2022-08-16T22:57:05.386Z,11.60
2022-08-16T22:59:34.523Z,10.97
2022-08-16T23:02:07.227Z,10.90
2022-08-16T23:04:35.931Z,11.47
2022-08-16T23:07:05.594Z,12.17
2022-08-16T23:09:34.870Z,11.10
2022-08-16T23:12:07.392Z,12.00
2022-08-16T23:14:35.830Z,11.33
2022-08-16T23:17:05.490Z,12.10
2022-08-16T23:19:34.127Z,11.73
2022-08-16T23:22:02.605Z,11.47
2022-08-16T23:24:37.217Z,13.03
2022-08-16T23:27:20.898Z,11.70
2022-08-16T23:29:49.349Z,12.00
2022-08-16T23:32:19.012Z,12.67
2022-08-16T23:34:47.973Z,11.50
2022-08-16T23:37:21.922Z,12.83
2022-08-16T23:39:50.415Z,13.13
2022-08-16T23:42:52.452Z,12.73
2022-08-16T23:45:12.255Z,12.30
2022-08-16T23:47:42.269Z,14.27
2022-08-16T23:50:11.326Z,13.30
2022-08-16T23:52:55.253Z,13.03
2022-08-16T23:55:24.131Z,13.50
2022-08-16T23:57:53.020Z,13.17
